Terminal Aerodrome Forecast
Issued by NWS

Home | Current Version | Previous Version | Text Only | Print | Product List | Glossary Off
Versions: 1 2 3 4 5 6 7 8 9 10 11 12 13 14 15 16 17 18 19

000
FTUS43 KGRB 042326
TAFATW
TAF
KATW 042326Z 0500/0524 21007KT P6SM SCT045 SCT250
     FM050200 10004KT P6SM SCT250
      TEMPO 0511/0513 6SM BR
     FM051400 21007KT P6SM SCT040
     FM051900 19010G18KT P6SM SCT045=

USA.gov is the U.S. government's official web portal to all federal, state and local government web resources and services.